Time;durP1;ratioP1;P1;durP2;ratioP2;P2;SDS_P1;SDS_P2;PMS_P1;PMS_P2;Temp;Humidity;BMP_temperature;BMP_pressure;BME280_temperature;BME280_humidity;BME280_pressure;Samples;Min_cycle;Max_cycle;Signal;HPM_P1;HPM_P2
2023/12/01 00:00:34;;;;;;;3.03;2.55;;;-0.60;99.90;;;;;;5026148;28;20088;-73
2023/12/01 00:02:59;;;;;;;3.20;2.63;;;-0.60;99.90;;;;;;5023086;28;20129;-73
2023/12/01 00:05:25;;;;;;;2.40;2.20;;;-0.60;99.90;;;;;;5017711;28;20046;-73
2023/12/01 00:07:51;;;;;;;3.53;3.25;;;-0.60;99.90;;;;;;5025951;28;20042;-73
2023/12/01 00:10:17;;;;;;;4.80;4.30;;;-0.60;99.90;;;;;;5026020;28;20041;-73
2023/12/01 00:12:42;;;;;;;3.67;3.35;;;-0.60;99.90;;;;;;5013751;28;20125;-73
2023/12/01 00:15:08;;;;;;;7.07;2.45;;;-0.60;99.90;;;;;;5018181;28;20092;-73
2023/12/01 00:17:34;;;;;;;7.43;1.48;;;-0.60;99.90;;;;;;5027510;28;20053;-73
2023/12/01 00:20:00;;;;;;;5.25;1.63;;;-0.60;99.90;;;;;;5026215;28;20449;-73
2023/12/01 00:22:25;;;;;;;4.03;3.65;;;-0.60;99.90;;;;;;5022474;28;20041;-73
2023/12/01 00:24:51;;;;;;;3.65;3.13;;;-0.60;99.90;;;;;;5022064;28;20042;-73
2023/12/01 00:27:18;;;;;;;2.58;2.40;;;-0.70;99.90;;;;;;5025894;28;20133;-73
2023/12/01 00:29:44;;;;;;;5.38;4.72;;;-0.60;99.90;;;;;;5025461;28;20045;-73
2023/12/01 00:32:09;;;;;;;3.72;3.00;;;-0.70;99.90;;;;;;5025192;28;20049;-73
2023/12/01 00:34:35;;;;;;;3.03;2.83;;;-0.70;99.90;;;;;;5025105;28;20120;-73
2023/12/01 00:37:01;;;;;;;4.35;2.45;;;-0.70;99.90;;;;;;5025089;28;20128;-73
2023/12/01 00:39:27;;;;;;;3.47;3.28;;;-0.80;99.90;;;;;;5019606;28;20057;-73
2023/12/01 00:41:53;;;;;;;6.53;3.22;;;-0.80;99.90;;;;;;5023497;28;20077;-73
2023/12/01 00:44:18;;;;;;;10.98;5.15;;;-0.80;99.90;;;;;;5024253;28;20068;-74
2023/12/01 00:46:53;;;;;;;6.88;6.15;;;-0.90;99.90;;;;;;5025786;28;20383;-73
2023/12/01 00:49:18;;;;;;;5.30;4.72;;;-0.90;99.90;;;;;;5024744;28;20060;-73
2023/12/01 00:51:45;;;;;;;5.30;4.75;;;-0.90;99.90;;;;;;5016124;28;20052;-73
2023/12/01 00:54:11;;;;;;;9.98;4.78;;;-0.90;99.90;;;;;;5024114;28;20083;-73
2023/12/01 00:56:36;;;;;;;10.90;2.72;;;-0.90;99.90;;;;;;5009995;28;20068;-73
2023/12/01 00:59:03;;;;;;;7.95;5.43;;;-1.00;99.90;;;;;;5025473;28;20072;-73
2023/12/01 01:01:30;;;;;;;3.90;3.63;;;-1.00;99.90;;;;;;5016391;28;20494;-73
2023/12/01 01:03:57;;;;;;;10.65;4.78;;;-1.00;99.90;;;;;;5017078;28;20537;-73
2023/12/01 01:06:23;;;;;;;5.25;3.47;;;-1.00;99.90;;;;;;5015501;28;20058;-73
2023/12/01 01:08:48;;;;;;;7.43;3.40;;;-1.10;99.90;;;;;;5017015;28;20185;-72
2023/12/01 01:11:14;;;;;;;14.02;5.28;;;-1.10;99.90;;;;;;5014925;28;20442;-72
2023/12/01 01:13:40;;;;;;;10.63;3.97;;;-1.10;99.90;;;;;;5021186;28;20144;-73
2023/12/01 01:16:22;;;;;;;7.57;4.57;;;-1.10;99.90;;;;;;5026002;28;20080;-73
2023/12/01 01:18:47;;;;;;;7.57;2.65;;;-1.20;99.90;;;;;;5020717;28;20135;-73
2023/12/01 01:21:13;;;;;;;5.97;4.20;;;-1.20;99.90;;;;;;5017387;28;20061;-73
2023/12/01 01:23:40;;;;;;;5.78;4.07;;;-1.20;99.90;;;;;;5020247;28;20049;-73
2023/12/01 01:26:07;;;;;;;6.82;4.45;;;-1.20;99.90;;;;;;5025524;28;20053;-73
2023/12/01 01:28:32;;;;;;;10.90;3.67;;;-1.20;99.90;;;;;;5013501;28;20077;-73
2023/12/01 01:30:58;;;;;;;4.47;3.85;;;-1.20;99.90;;;;;;5012440;28;20070;-73
2023/12/01 01:33:24;;;;;;;5.07;4.47;;;-1.30;99.90;;;;;;5023115;28;20235;-73
2023/12/01 01:35:49;;;;;;;6.47;3.90;;;-1.30;99.90;;;;;;5020692;28;20144;-73
2023/12/01 01:38:15;;;;;;;3.22;2.90;;;-1.30;99.90;;;;;;5018315;28;20049;-73
2023/12/01 01:40:41;;;;;;;10.57;5.78;;;-1.30;99.90;;;;;;5014884;28;20046;-73
2023/12/01 01:43:06;;;;;;;7.63;4.72;;;-1.40;99.90;;;;;;5024310;28;20148;-73
2023/12/01 01:45:32;;;;;;;6.82;3.50;;;-1.40;99.90;;;;;;5024770;28;20046;-73
2023/12/01 01:47:59;;;;;;;6.38;4.53;;;-1.50;99.90;;;;;;5025024;28;20053;-73
2023/12/01 01:50:25;;;;;;;5.40;4.45;;;-1.50;99.90;;;;;;5021344;28;20046;-73
2023/12/01 01:52:54;;;;;;;6.25;5.65;;;-1.50;99.90;;;;;;5017859;28;20633;-73
2023/12/01 01:55:19;;;;;;;5.97;5.47;;;-1.50;99.90;;;;;;5020846;28;20056;-73
2023/12/01 01:57:46;;;;;;;8.93;5.65;;;-1.60;99.90;;;;;;5019473;28;20045;-73
2023/12/01 02:00:16;;;;;;;5.50;4.10;;;-1.60;99.90;;;;;;5016392;28;20050;-73
2023/12/01 02:02:42;;;;;;;3.33;2.63;;;-1.70;99.90;;;;;;5024955;28;20057;-73
2023/12/01 02:05:13;;;;;;;4.30;2.70;;;-1.70;99.90;;;;;;5024263;28;20049;-73
2023/12/01 02:07:39;;;;;;;5.03;3.78;;;-1.70;99.90;;;;;;5011345;28;20141;-73
2023/12/01 02:10:06;;;;;;;2.83;2.63;;;-1.70;99.90;;;;;;5023044;28;20053;-73
2023/12/01 02:12:32;;;;;;;5.63;3.40;;;-1.70;99.90;;;;;;5021402;28;20068;-73
2023/12/01 02:14:57;;;;;;;8.63;3.40;;;-1.70;99.90;;;;;;5007460;28;20846;-73
2023/12/01 02:17:23;;;;;;;1.70;1.55;;;-1.70;99.90;;;;;;5023998;28;20529;-72
2023/12/01 02:19:51;;;;;;;2.85;2.65;;;-1.70;99.90;;;;;;5022369;28;20537;-73
2023/12/01 02:22:17;;;;;;;2.58;2.40;;;-1.70;99.90;;;;;;5026461;28;20049;-73
2023/12/01 02:24:43;;;;;;;3.13;2.92;;;-1.70;99.90;;;;;;5028098;28;20054;-73
2023/12/01 02:27:09;;;;;;;4.50;2.83;;;-1.70;99.90;;;;;;5024431;28;20068;-73
2023/12/01 02:29:34;;;;;;;5.72;2.60;;;-1.70;99.90;;;;;;5027536;28;20395;-74
2023/12/01 02:32:00;;;;;;;3.33;3.08;;;-1.70;99.90;;;;;;5018824;28;20081;-73
2023/12/01 02:34:25;;;;;;;4.25;3.80;;;-1.70;99.90;;;;;;5020733;28;20499;-73
2023/12/01 02:36:53;;;;;;;3.75;2.47;;;-1.80;99.90;;;;;;5015267;28;20057;-73
2023/12/01 02:39:19;;;;;;;4.55;3.92;;;-1.80;99.90;;;;;;5015974;28;20486;-73
2023/12/01 02:41:45;;;;;;;3.08;2.08;;;-1.90;99.90;;;;;;5014880;28;20128;-73
2023/12/01 02:44:10;;;;;;;13.20;4.65;;;-1.90;99.90;;;;;;5019307;28;20410;-73
2023/12/01 02:46:36;;;;;;;4.25;3.88;;;-1.80;99.90;;;;;;5026836;28;20076;-73
2023/12/01 02:49:02;;;;;;;11.65;4.78;;;-1.90;99.90;;;;;;5024805;28;20076;-73
2023/12/01 02:51:27;;;;;;;6.18;3.55;;;-1.90;99.90;;;;;;5026415;28;20155;-73
2023/12/01 02:53:54;;;;;;;6.53;3.90;;;-1.90;99.90;;;;;;5027315;28;20042;-73
2023/12/01 02:56:21;;;;;;;2.53;2.30;;;-1.90;99.90;;;;;;5020553;28;20053;-73
2023/12/01 02:58:46;;;;;;;4.38;4.00;;;-1.90;99.90;;;;;;5024864;28;20120;-73
2023/12/01 03:01:13;;;;;;;7.25;2.95;;;-1.90;99.90;;;;;;5027185;28;20839;-73
2023/12/01 03:03:40;;;;;;;2.83;2.55;;;-1.90;99.90;;;;;;5027678;28;20194;-73
2023/12/01 03:06:05;;;;;;;6.57;3.30;;;-1.90;99.90;;;;;;5028932;28;20087;-73
2023/12/01 03:08:31;;;;;;;3.15;2.88;;;-1.90;99.90;;;;;;5020659;28;20077;-73
2023/12/01 03:10:57;;;;;;;10.13;3.13;;;-1.90;99.90;;;;;;5036108;28;20061;-73
2023/12/01 03:13:23;;;;;;;5.53;4.03;;;-1.90;99.90;;;;;;5025487;28;20125;-73
2023/12/01 03:15:49;;;;;;;11.00;6.10;;;-1.90;99.90;;;;;;5016854;28;20056;-73
2023/12/01 03:18:15;;;;;;;6.35;4.88;;;-1.90;99.90;;;;;;5023138;28;20115;-73
2023/12/01 03:20:41;;;;;;;10.02;7.47;;;-2.00;99.90;;;;;;5020628;28;20045;-73
2023/12/01 03:23:06;;;;;;;7.93;5.72;;;-2.00;99.90;;;;;;5009381;28;20510;-72
2023/12/01 03:25:33;;;;;;;4.25;3.95;;;-2.00;99.90;;;;;;5024750;28;20128;-73
2023/12/01 03:27:58;;;;;;;6.57;5.63;;;-2.00;99.90;;;;;;5024073;28;20077;-73
2023/12/01 03:30:24;;;;;;;11.57;4.43;;;-2.00;99.90;;;;;;5027916;28;20486;-73
2023/12/01 03:32:52;;;;;;;5.28;3.83;;;-2.00;99.90;;;;;;5020347;28;20065;-73
2023/12/01 03:35:22;;;;;;;3.00;2.80;;;-1.90;99.90;;;;;;5024588;28;20060;-73
2023/12/01 03:37:49;;;;;;;4.03;3.08;;;-1.90;99.90;;;;;;5028256;28;20141;-73
2023/12/01 03:40:15;;;;;;;3.78;3.20;;;-1.90;99.90;;;;;;5021750;28;20137;-73
2023/12/01 03:42:45;;;;;;;4.55;3.30;;;-1.90;99.90;;;;;;5027140;28;20132;-72
2023/12/01 03:45:12;;;;;;;9.15;2.67;;;-1.80;99.90;;;;;;5023239;28;20054;-72
2023/12/01 03:47:39;;;;;;;5.78;5.25;;;-1.90;99.90;;;;;;5027411;28;20391;-73
2023/12/01 03:50:05;;;;;;;6.07;3.30;;;-1.80;99.90;;;;;;5026180;28;20838;-73
2023/12/01 03:52:31;;;;;;;4.78;3.03;;;-1.90;99.90;;;;;;5021501;28;20181;-72
2023/12/01 03:54:58;;;;;;;2.97;2.60;;;-1.90;99.90;;;;;;5023567;28;20144;-73
2023/12/01 03:57:27;;;;;;;3.63;3.40;;;-1.90;99.90;;;;;;5027722;28;20080;-73
2023/12/01 03:59:54;;;;;;;4.28;2.40;;;-1.90;99.90;;;;;;5020953;28;20053;-72
2023/12/01 04:02:21;;;;;;;2.22;2.05;;;-1.90;99.90;;;;;;5017969;28;20054;-72
2023/12/01 04:04:47;;;;;;;8.00;4.72;;;-1.90;99.90;;;;;;5024054;28;20194;-72
2023/12/01 04:07:13;;;;;;;4.15;3.83;;;-2.00;99.90;;;;;;5015062;28;20095;-72
2023/12/01 04:09:39;;;;;;;2.30;2.05;;;-2.00;99.90;;;;;;5017862;28;20057;-72
2023/12/01 04:12:05;;;;;;;7.70;6.90;;;-2.10;99.90;;;;;;5021882;28;20752;-72
2023/12/01 04:14:31;;;;;;;4.07;3.40;;;-2.10;99.90;;;;;;5024208;28;20075;-74
2023/12/01 04:16:56;;;;;;;4.80;4.40;;;-2.20;99.90;;;;;;5026849;28;20490;-72
2023/12/01 04:19:23;;;;;;;4.25;3.85;;;-2.20;99.90;;;;;;5026662;28;20045;-72
2023/12/01 04:21:52;;;;;;;5.00;4.50;;;-2.20;99.90;;;;;;5012449;28;20041;-72
2023/12/01 04:24:18;;;;;;;;;;;-2.20;99.90;;;;;;5027040;28;20065;-72
2023/12/01 04:26:43;;;;;;;5.43;3.33;;;-2.20;99.90;;;;;;5013633;28;19925;-73
2023/12/01 04:29:09;;;;;;;2.58;2.40;;;-2.20;99.90;;;;;;5021833;28;20418;-72
2023/12/01 04:31:35;;;;;;;2.88;2.67;;;-2.20;99.90;;;;;;5019474;28;20045;-72
2023/12/01 04:34:00;;;;;;;5.85;4.80;;;-2.20;99.90;;;;;;5025810;28;20068;-72
2023/12/01 04:36:26;;;;;;;6.30;4.60;;;-2.20;99.90;;;;;;5028355;28;20045;-72
2023/12/01 04:38:52;;;;;;;12.65;5.10;;;-2.30;99.90;;;;;;5026419;28;20080;-72
2023/12/01 04:41:17;;;;;;;7.93;4.90;;;-2.30;99.90;;;;;;5023806;28;20045;-72
2023/12/01 04:43:43;;;;;;;4.88;3.17;;;-2.30;99.90;;;;;;5018932;28;20044;-73
2023/12/01 04:46:08;;;;;;;4.80;3.35;;;-2.40;99.90;;;;;;5016807;28;20057;-72
2023/12/01 04:48:34;;;;;;;5.88;4.18;;;-2.50;99.90;;;;;;5013739;28;20048;-72
2023/12/01 04:51:00;;;;;;;5.55;5.00;;;-2.50;99.90;;;;;;5021315;28;20054;-73
2023/12/01 04:53:26;;;;;;;2.58;2.42;;;-2.60;99.90;;;;;;5024999;28;20046;-72
2023/12/01 04:55:51;;;;;;;6.85;4.05;;;-2.60;99.90;;;;;;5025351;28;20613;-72
2023/12/01 04:58:17;;;;;;;4.90;3.88;;;-2.60;99.90;;;;;;5020870;28;20158;-72
2023/12/01 05:00:43;;;;;;;7.63;4.35;;;-2.70;99.90;;;;;;5020353;28;20041;-72
2023/12/01 05:03:08;;;;;;;4.68;2.78;;;-2.70;99.90;;;;;;5023499;28;20052;-72
2023/12/01 05:05:35;;;;;;;3.40;3.20;;;-2.70;99.90;;;;;;5024707;28;20132;-73
2023/12/01 05:08:04;;;;;;;3.92;2.63;;;-2.70;99.90;;;;;;5015771;28;20060;-73
2023/12/01 05:10:32;;;;;;;3.63;3.30;;;-2.70;99.90;;;;;;5020217;28;20058;-73
2023/12/01 05:13:03;;;;;;;2.38;2.17;;;-2.80;99.90;;;;;;5026369;28;20044;-73
2023/12/01 05:15:30;;;;;;;8.27;4.22;;;-2.80;99.90;;;;;;5026379;28;20073;-73
2023/12/01 05:18:00;;;;;;;2.75;2.58;;;-2.80;99.90;;;;;;5026057;28;20038;-74
2023/12/01 05:20:27;;;;;;;4.40;3.10;;;-2.80;99.90;;;;;;5026066;28;20494;-74
2023/12/01 05:22:54;;;;;;;2.50;2.40;;;-2.80;99.90;;;;;;5021679;28;20050;-73
2023/12/01 05:25:21;;;;;;;3.25;2.67;;;-2.80;99.90;;;;;;5024901;28;20073;-74
2023/12/01 05:27:52;;;;;;;1.45;1.45;;;-2.90;99.90;;;;;;5021147;28;20526;-74
2023/12/01 05:30:19;;;;;;;3.38;2.05;;;-2.80;99.90;;;;;;5019082;28;20049;-74
2023/12/01 05:32:50;;;;;;;2.80;2.45;;;-2.80;99.90;;;;;;5025695;28;20042;-74
2023/12/01 05:35:16;;;;;;;0.80;0.80;;;-2.80;99.90;;;;;;5021234;28;20050;-75
2023/12/01 05:37:50;;;;;;;3.75;2.63;;;-2.80;99.90;;;;;;5015517;28;20153;-75
2023/12/01 05:40:36;;;;;;;2.13;2.00;;;-2.80;99.90;;;;;;5022611;28;20059;-75
2023/12/01 05:43:03;;;;;;;3.85;2.28;;;-2.80;99.90;;;;;;5020951;28;20041;-75
2023/12/01 05:45:33;;;;;;;1.38;1.27;;;-2.90;99.90;;;;;;5025438;28;20073;-75
2023/12/01 05:47:59;;;;;;;4.30;3.20;;;-2.90;99.90;;;;;;5021485;28;20080;-75
2023/12/01 05:50:29;;;;;;;3.03;2.83;;;-2.90;99.90;;;;;;5023423;28;20085;-75
2023/12/01 05:52:57;;;;;;;1.35;1.33;;;-2.90;99.90;;;;;;5024837;28;20480;-75
2023/12/01 05:55:25;;;;;;;1.38;1.27;;;-2.90;99.90;;;;;;5029232;28;20045;-76
2023/12/01 05:57:58;;;;;;;1.10;1.02;;;-2.90;99.90;;;;;;5029435;28;20053;-75
2023/12/01 06:00:31;;;;;;;0.88;0.88;;;-2.90;99.90;;;;;;5023028;28;20558;-75
2023/12/01 06:03:08;;;;;;;1.55;1.48;;;-2.90;99.90;;;;;;5011742;28;20048;-75
2023/12/01 06:05:35;;;;;;;2.03;1.92;;;-3.00;99.90;;;;;;5031042;28;20591;-75
2023/12/01 06:08:04;;;;;;;2.55;2.10;;;-3.00;99.90;;;;;;5028800;28;20052;-75
2023/12/01 06:10:31;;;;;;;1.45;0.95;;;-3.00;99.90;;;;;;5015103;28;20131;-75
2023/12/01 06:12:58;;;;;;;1.17;1.17;;;-3.00;99.90;;;;;;5025028;28;20049;-75
2023/12/01 06:15:29;;;;;;;1.73;1.65;;;-3.10;99.90;;;;;;5025251;28;20054;-75
2023/12/01 06:17:57;;;;;;;0.80;0.80;;;-3.10;99.90;;;;;;5016631;28;20041;-75
2023/12/01 06:20:24;;;;;;;2.85;2.50;;;-3.10;99.90;;;;;;5026582;28;20037;-76
2023/12/01 06:22:57;;;;;;;1.70;1.60;;;-3.10;99.90;;;;;;5022225;28;20049;-76
2023/12/01 06:25:28;;;;;;;1.35;1.00;;;-3.10;99.90;;;;;;5022491;28;20494;-76
2023/12/01 06:27:59;;;;;;;2.80;1.77;;;-3.00;99.90;;;;;;5027539;28;20045;-76
2023/12/01 06:30:33;;;;;;;2.67;1.95;;;-3.10;99.90;;;;;;5013451;28;20156;-76
2023/12/01 06:33:03;;;;;;;1.45;1.35;;;-3.10;99.90;;;;;;5022142;28;20053;-76
2023/12/01 06:35:29;;;;;;;0.95;0.95;;;-3.10;99.90;;;;;;5019968;28;20057;-75
2023/12/01 06:37:56;;;;;;;1.30;1.15;;;-3.10;99.90;;;;;;5029441;28;20084;-76
2023/12/01 06:40:22;;;;;;;0.82;0.75;;;-3.10;99.90;;;;;;5028019;28;20076;-76
2023/12/01 06:42:49;;;;;;;0.52;0.52;;;-3.00;99.90;;;;;;5023361;28;20490;-76
2023/12/01 06:45:17;;;;;;;0.63;0.63;;;-3.00;99.90;;;;;;5023618;28;20049;-75
2023/12/01 06:47:46;;;;;;;1.00;0.67;;;-3.00;99.90;;;;;;5025216;28;20502;-75
2023/12/01 06:50:14;;;;;;;0.40;0.40;;;-3.00;99.90;;;;;;5026497;28;20045;-76
2023/12/01 06:52:40;;;;;;;0.70;0.70;;;-3.00;99.90;;;;;;5028560;28;20061;-75
2023/12/01 06:55:07;;;;;;;0.80;0.80;;;-3.00;99.90;;;;;;5028509;28;20119;-75
2023/12/01 06:57:38;;;;;;;0.50;0.50;;;-3.00;99.90;;;;;;5026413;28;20067;-75
2023/12/01 07:00:09;;;;;;;0.50;0.50;;;-3.00;99.90;;;;;;5024608;28;20688;-75
2023/12/01 07:02:38;;;;;;;0.65;0.65;;;-3.00;99.90;;;;;;5015744;28;20431;-76
2023/12/01 07:05:04;;;;;;;;;;;-3.00;99.90;;;;;;5026854;28;20061;-76
2023/12/01 07:07:31;;;;;;;0.45;0.45;;;-3.00;99.90;;;;;;5018598;28;19929;-77
2023/12/01 07:09:58;;;;;;;0.38;0.38;;;-3.00;99.90;;;;;;5022536;28;20050;-76
2023/12/01 07:12:23;;;;;;;0.50;0.50;;;-3.00;99.90;;;;;;5027120;28;20056;-76
2023/12/01 07:14:49;;;;;;;0.70;0.70;;;-3.00;99.90;;;;;;5028280;28;20503;-76
2023/12/01 07:17:15;;;;;;;1.27;0.88;;;-3.00;99.90;;;;;;5025280;28;20599;-75
2023/12/01 07:19:40;;;;;;;0.47;0.47;;;-3.10;99.90;;;;;;5028306;28;20046;-75
2023/12/01 07:22:07;;;;;;;0.40;0.40;;;-3.00;99.90;;;;;;5022575;28;20045;-76
2023/12/01 07:24:33;;;;;;;0.50;0.50;;;-3.00;99.90;;;;;;5014686;28;20052;-76
2023/12/01 07:26:58;;;;;;;0.60;0.60;;;-3.10;99.90;;;;;;5023233;28;20621;-76
2023/12/01 07:29:24;;;;;;;0.40;0.40;;;-3.00;99.90;;;;;;5023735;28;20046;-76
2023/12/01 07:31:51;;;;;;;0.43;0.43;;;-3.00;99.90;;;;;;5020762;28;20077;-76
2023/12/01 07:34:18;;;;;;;1.15;0.93;;;-3.00;99.90;;;;;;5018627;28;20057;-76
2023/12/01 07:36:44;;;;;;;0.55;0.55;;;-3.00;99.90;;;;;;5027627;28;20041;-76
2023/12/01 07:39:10;;;;;;;0.60;0.60;;;-3.00;99.90;;;;;;5026441;28;20547;-76
2023/12/01 07:41:35;;;;;;;0.75;0.75;;;-3.00;99.90;;;;;;5023786;28;20233;-77
2023/12/01 07:44:02;;;;;;;0.60;0.60;;;-3.10;99.90;;;;;;5021894;28;20644;-76
2023/12/01 07:46:32;;;;;;;1.40;1.30;;;-3.10;99.90;;;;;;5024753;28;20060;-76
2023/12/01 07:48:59;;;;;;;0.60;0.60;;;-3.10;99.90;;;;;;5025439;28;20123;-76
2023/12/01 07:51:25;;;;;;;0.52;0.52;;;-3.10;99.90;;;;;;5022017;28;20403;-76
2023/12/01 07:53:51;;;;;;;0.50;0.50;;;-3.10;99.90;;;;;;5024416;28;20080;-77
2023/12/01 07:56:21;;;;;;;0.63;0.63;;;-3.20;99.90;;;;;;5020850;28;20078;-76
2023/12/01 07:58:51;;;;;;;0.40;0.40;;;-3.10;99.90;;;;;;5022695;28;20504;-76
2023/12/01 08:01:17;;;;;;;0.40;0.40;;;-3.10;99.90;;;;;;5026732;28;20045;-77
2023/12/01 08:03:46;;;;;;;1.00;0.98;;;-3.10;99.90;;;;;;5024790;28;20450;-77
2023/12/01 08:06:13;;;;;;;0.50;0.50;;;-3.10;99.90;;;;;;5023780;28;20037;-77
2023/12/01 08:08:40;;;;;;;0.40;0.40;;;-3.10;99.90;;;;;;5026092;28;21330;-76
2023/12/01 08:11:05;;;;;;;0.50;0.50;;;-3.10;99.90;;;;;;5026712;28;20544;-76
2023/12/01 08:13:31;;;;;;;0.88;0.88;;;-3.10;99.90;;;;;;5020103;28;20049;-76
2023/12/01 08:15:57;;;;;;;0.70;0.70;;;-3.10;99.90;;;;;;5018953;28;20058;-77
2023/12/01 08:18:23;;;;;;;0.73;0.73;;;-3.10;99.90;;;;;;5020764;28;20566;-77
2023/12/01 08:20:50;;;;;;;1.10;1.10;;;-3.10;99.90;;;;;;5023637;28;20469;-77
2023/12/01 08:23:19;;;;;;;0.60;0.60;;;-3.10;99.90;;;;;;5024412;28;20052;-77
2023/12/01 08:25:46;;;;;;;1.38;1.35;;;-3.00;99.90;;;;;;5021388;28;20421;-77
2023/12/01 08:28:12;;;;;;;0.98;0.98;;;-3.10;99.90;;;;;;5025772;28;20099;-76
2023/12/01 08:30:37;;;;;;;0.40;0.40;;;-3.00;99.90;;;;;;5021874;28;20045;-77
2023/12/01 08:33:03;;;;;;;0.82;0.82;;;-3.00;99.90;;;;;;5025595;28;20647;-76
2023/12/01 08:35:29;;;;;;;1.30;0.90;;;-3.00;99.90;;;;;;5023883;28;20037;-77
2023/12/01 08:37:55;;;;;;;0.60;0.60;;;-3.00;99.90;;;;;;5019622;28;20099;-76
2023/12/01 08:40:22;;;;;;;0.68;0.68;;;-3.00;99.90;;;;;;5023050;28;20506;-76
2023/12/01 08:42:48;;;;;;;0.35;0.35;;;-3.00;99.90;;;;;;5021806;28;20049;-77
2023/12/01 08:45:14;;;;;;;1.10;1.10;;;-3.00;99.90;;;;;;5021786;28;20049;-79
2023/12/01 08:47:42;;;;;;;1.75;1.30;;;-2.90;99.90;;;;;;5018626;28;20084;-78
2023/12/01 08:50:10;;;;;;;1.17;1.17;;;-2.90;99.90;;;;;;5020754;28;20049;-77
2023/12/01 08:52:39;;;;;;;2.38;1.38;;;-2.90;99.90;;;;;;5012377;28;20052;-77
2023/12/01 08:55:06;;;;;;;2.35;1.38;;;-2.90;99.90;;;;;;5021556;28;20033;-77
2023/12/01 08:57:32;;;;;;;4.20;2.88;;;-2.90;99.90;;;;;;5022669;28;20053;-77
2023/12/01 08:59:58;;;;;;;1.45;1.38;;;-2.90;99.90;;;;;;5017396;28;20053;-77
2023/12/01 09:02:24;;;;;;;2.03;1.92;;;-2.80;99.90;;;;;;5018113;28;20075;-77
2023/12/01 09:04:50;;;;;;;3.58;2.85;;;-2.80;99.90;;;;;;5019071;28;20069;-77
2023/12/01 09:07:16;;;;;;;1.58;1.48;;;-2.70;99.90;;;;;;5014825;28;20351;-76
2023/12/01 09:09:41;;;;;;;4.22;2.63;;;-2.70;99.90;;;;;;5021645;28;20045;-76
2023/12/01 09:12:07;;;;;;;2.65;2.47;;;-2.60;99.90;;;;;;5018040;28;20049;-77
2023/12/01 09:14:33;;;;;;;3.72;3.13;;;-2.60;99.90;;;;;;5021784;28;20542;-76
2023/12/01 09:16:58;;;;;;;3.75;3.33;;;-2.60;99.90;;;;;;5013806;28;20057;-76
2023/12/01 09:19:24;;;;;;;2.30;2.08;;;-2.50;99.90;;;;;;5022663;28;20140;-76
2023/12/01 09:21:50;;;;;;;2.25;2.05;;;-2.50;99.90;;;;;;5017772;28;20068;-76
2023/12/01 09:24:16;;;;;;;5.15;3.63;;;-2.50;99.90;;;;;;5021751;28;20454;-76
2023/12/01 09:26:41;;;;;;;5.25;3.58;;;-2.40;99.90;;;;;;5011461;28;20124;-76
2023/12/01 09:29:08;;;;;;;7.18;2.65;;;-2.40;99.90;;;;;;5022650;28;20734;-76
2023/12/01 09:31:50;;;;;;;1.80;1.77;;;-2.40;99.90;;;;;;5023724;28;20136;-76
2023/12/01 09:34:16;;;;;;;16.25;3.65;;;-2.30;99.90;;;;;;5017918;28;20577;-76
2023/12/01 09:36:44;;;;;;;2.65;2.47;;;-2.30;99.90;;;;;;5019752;28;20140;-77
2023/12/01 09:39:09;;;;;;;2.97;2.75;;;-2.30;99.90;;;;;;5024160;28;20049;-76
2023/12/01 09:41:36;;;;;;;2.03;1.90;;;-2.20;99.90;;;;;;5018334;28;20458;-76
2023/12/01 09:44:02;;;;;;;2.85;2.05;;;-2.20;99.90;;;;;;5022730;28;20145;-76
2023/12/01 09:46:35;;;;;;;1.60;1.55;;;-2.20;99.90;;;;;;5024939;28;20050;-76
2023/12/01 09:49:05;;;;;;;2.10;2.00;;;-2.10;99.90;;;;;;5016432;28;20452;-76
2023/12/01 09:51:34;;;;;;;2.25;1.23;;;-2.10;99.90;;;;;;5021903;28;20076;-77
2023/12/01 09:54:04;;;;;;;;;;;-2.00;99.90;;;;;;5018807;28;20383;-75
2023/12/01 09:56:30;;;;;;;2.60;2.08;;;-2.00;99.90;;;;;;5025375;28;19932;-76
2023/12/01 09:58:57;;;;;;;1.63;1.45;;;-1.90;99.90;;;;;;5024723;28;20426;-76
2023/12/01 10:01:25;;;;;;;1.55;1.45;;;-1.90;99.90;;;;;;5021975;28;20102;-76
2023/12/01 10:03:52;;;;;;;1.63;1.52;;;-1.80;99.90;;;;;;5019774;28;20094;-76
2023/12/01 10:06:18;;;;;;;2.85;1.63;;;-1.80;99.90;;;;;;5020269;28;20093;-75
2023/12/01 10:08:44;;;;;;;1.58;1.48;;;-1.80;99.90;;;;;;5013153;28;20037;-77
2023/12/01 10:11:22;;;;;;;2.40;1.63;;;-1.70;99.90;;;;;;5022554;28;20075;-76
2023/12/01 10:13:49;;;;;;;1.25;1.25;;;-1.60;99.90;;;;;;5016959;28;20052;-76
2023/12/01 10:16:16;;;;;;;0.60;0.60;;;-1.60;99.90;;;;;;5023255;28;20521;-76
2023/12/01 10:18:59;;;;;;;1.77;1.40;;;-1.60;99.90;;;;;;5022462;28;20054;-76
2023/12/01 10:21:48;;;;;;;2.03;1.85;;;-1.50;99.90;;;;;;5015356;28;20057;-76
2023/12/01 10:24:20;;;;;;;3.78;1.52;;;-1.50;99.90;;;;;;5011192;28;20068;-76
2023/12/01 10:26:50;;;;;;;4.63;2.50;;;-1.40;99.90;;;;;;5014047;28;20096;-76
2023/12/01 10:29:44;;;;;;;1.05;1.05;;;-1.40;99.90;;;;;;5020220;28;20081;-76
2023/12/01 10:32:13;;;;;;;1.60;1.48;;;-1.30;99.90;;;;;;5012966;28;20065;-76
2023/12/01 10:34:40;;;;;;;5.72;3.67;;;-1.30;99.90;;;;;;5024286;28;20120;-76
2023/12/01 10:37:06;;;;;;;3.92;2.60;;;-1.30;99.90;;;;;;5027693;28;20053;-76
2023/12/01 10:39:32;;;;;;;3.80;3.50;;;-1.30;99.90;;;;;;5027456;28;20060;-76
2023/12/01 10:41:59;;;;;;;3.13;2.35;;;-1.30;99.90;;;;;;5013996;28;20079;-76
2023/12/01 10:44:26;;;;;;;3.83;3.10;;;-1.30;99.90;;;;;;5023893;28;20571;-76
2023/12/01 10:46:53;;;;;;;3.58;3.28;;;-1.20;99.90;;;;;;5028739;28;20052;-76
2023/12/01 10:49:20;;;;;;;4.28;2.95;;;-1.30;99.90;;;;;;5025266;28;20049;-76
2023/12/01 10:51:52;;;;;;;4.20;3.35;;;-1.20;99.90;;;;;;5021976;28;20639;-76
2023/12/01 10:54:21;;;;;;;5.95;2.58;;;-1.10;99.90;;;;;;5026895;28;20053;-76
2023/12/01 10:56:53;;;;;;;3.33;3.10;;;-1.10;99.90;;;;;;5027079;28;20046;-75
2023/12/01 10:59:20;;;;;;;2.03;1.80;;;-1.10;99.90;;;;;;5027526;28;20049;-75
2023/12/01 11:01:49;;;;;;;3.45;2.65;;;-1.10;99.90;;;;;;5020139;28;20045;-75
2023/12/01 11:04:23;;;;;;;5.07;3.13;;;-1.10;99.90;;;;;;5023666;28;20396;-75
2023/12/01 11:07:27;;;;;;;8.02;1.92;;;-1.00;99.90;;;;;;5026822;28;20140;-75
2023/12/01 11:10:15;;;;;;;2.85;2.58;;;-1.00;99.90;;;;;;5023747;28;20585;-76
2023/12/01 11:13:12;;;;;;;4.00;3.43;;;-1.10;99.90;;;;;;5027842;28;20528;-76
2023/12/01 11:15:41;;;;;;;5.30;4.82;;;-1.10;99.90;;;;;;5022058;28;20300;-75
2023/12/01 11:18:08;;;;;;;;;;;-1.10;99.90;;;;;;5027506;28;20053;-76
2023/12/01 11:20:41;;;;;;;4.53;2.78;;;-1.10;99.90;;;;;;5019902;28;19922;-75
2023/12/01 11:23:10;;;;;;;8.63;3.58;;;-1.10;99.90;;;;;;5021925;28;20809;-75
2023/12/01 11:25:41;;;;;;;3.20;2.90;;;-1.10;99.90;;;;;;5025695;28;20129;-75
2023/12/01 11:28:37;;;;;;;4.70;3.85;;;-1.10;99.90;;;;;;5020350;28;20068;-75
2023/12/01 11:31:37;;;;;;;4.75;4.32;;;-1.10;99.90;;;;;;5025639;28;20121;-75
2023/12/01 11:34:04;;;;;;;5.95;4.43;;;-1.10;99.90;;;;;;5025286;28;20045;-75
2023/12/01 11:36:32;;;;;;;12.00;3.88;;;-1.10;99.90;;;;;;5027057;28;20059;-74
2023/12/01 11:41:42;;;;;;;5.80;4.43;;;-1.10;99.90;;;;;;5026748;28;20513;-75
2023/12/01 11:44:16;;;;;;;1.35;1.35;;;-1.10;99.90;;;;;;5026542;28;20781;-74
2023/12/01 11:46:42;;;;;;;3.55;2.63;;;-1.00;99.90;;;;;;5016562;28;20088;-74
2023/12/01 11:49:14;;;;;;;6.03;3.85;;;-1.00;99.90;;;;;;5021173;28;20498;-75
2023/12/01 11:51:43;;;;;;;5.45;4.68;;;-1.10;99.90;;;;;;5024554;28;20085;-73
2023/12/01 11:54:09;;;;;;;;;;;-1.10;99.90;;;;;;4997363;28;20042;-73
2023/12/01 11:56:35;;;;;;;4.55;4.03;;;-1.00;99.90;;;;;;5018546;28;19971;-73
2023/12/01 11:59:02;;;;;;;6.55;4.78;;;-0.90;99.90;;;;;;5026393;28;20414;-73
2023/12/01 12:01:30;;;;;;;7.95;3.45;;;-0.90;99.90;;;;;;5025045;28;20049;-73
2023/12/01 12:03:57;;;;;;;5.13;4.72;;;-0.90;99.90;;;;;;5019210;28;20133;-73
2023/12/01 12:06:24;;;;;;;3.70;2.53;;;-0.90;99.90;;;;;;5018908;28;20057;-73
2023/12/01 12:08:51;;;;;;;4.20;2.40;;;-0.90;99.90;;;;;;5025315;28;20064;-73
2023/12/01 12:11:17;;;;;;;7.20;3.67;;;-0.90;99.90;;;;;;5022758;28;20053;-73
2023/12/01 12:13:52;;;;;;;8.07;5.07;;;-0.80;99.90;;;;;;5023276;28;20151;-73
2023/12/01 12:16:20;;;;;;;4.63;4.15;;;-0.80;99.90;;;;;;5016926;28;20073;-72
2023/12/01 12:18:50;;;;;;;3.47;2.28;;;-0.80;99.90;;;;;;5025021;28;20499;-73
2023/12/01 12:21:16;;;;;;;5.68;4.28;;;-0.70;99.90;;;;;;5027062;28;20146;-72
2023/12/01 12:23:42;;;;;;;5.93;4.25;;;-0.70;99.90;;;;;;5017383;28;20041;-73
2023/12/01 12:26:14;;;;;;;4.82;3.45;;;-0.70;99.90;;;;;;5023425;28;20441;-73
2023/12/01 12:28:46;;;;;;;10.52;5.18;;;-0.70;99.90;;;;;;5017880;28;20204;-73
2023/12/01 12:31:12;;;;;;;5.68;5.18;;;-0.70;99.90;;;;;;5022255;28;20083;-73
2023/12/01 12:33:38;;;;;;;4.28;3.97;;;-0.70;99.90;;;;;;5021498;28;20094;-73
2023/12/01 12:36:05;;;;;;;3.05;2.70;;;-0.70;99.90;;;;;;5026120;28;20497;-73
2023/12/01 12:38:33;;;;;;;5.65;5.15;;;-0.70;99.90;;;;;;5024874;28;20388;-74
2023/12/01 12:41:04;;;;;;;5.32;2.97;;;-0.70;99.90;;;;;;5025623;28;20049;-73
2023/12/01 12:43:34;;;;;;;6.22;4.28;;;-0.70;99.90;;;;;;5023656;28;20170;-74
2023/12/01 12:46:04;;;;;;;2.85;2.63;;;-0.70;99.90;;;;;;5021300;28;20046;-74
2023/12/01 12:48:31;;;;;;;4.63;4.18;;;-0.70;99.90;;;;;;5019741;28;20399;-74
2023/12/01 12:50:58;;;;;;;4.10;3.72;;;-0.70;99.90;;;;;;5017195;28;20037;-74
2023/12/01 12:53:23;;;;;;;4.43;4.10;;;-0.70;99.90;;;;;;5024948;28;20087;-74